createdAt,value
2019-04-28T00:00:44.251Z,8.73
2019-04-28T00:03:13.898Z,9.03
2019-04-28T00:05:43.467Z,9.47
2019-04-28T00:08:13.009Z,8.73
2019-04-28T00:10:42.570Z,8.63
2019-04-28T00:13:13.251Z,9.07
2019-04-28T00:15:42.683Z,8.67
2019-04-28T00:18:12.187Z,9.07
2019-04-28T00:20:43.343Z,9.17
2019-04-28T00:23:31.820Z,8.40
2019-04-28T00:26:05.895Z,8.30
2019-04-28T00:28:35.401Z,8.60
2019-04-28T00:31:05.323Z,8.17
2019-04-28T00:33:34.767Z,9.07
2019-04-28T00:36:04.475Z,8.20
2019-04-28T00:38:33.931Z,8.87
2019-04-28T00:41:03.376Z,8.37
2019-04-28T00:43:32.997Z,7.80
2019-04-28T00:46:03.801Z,7.63
2019-04-28T00:48:33.326Z,7.53
2019-04-28T00:51:02.766Z,8.17
2019-04-28T00:53:32.452Z,7.53
2019-04-28T00:56:02.251Z,8.23
2019-04-28T00:58:32.010Z,7.27
2019-04-28T01:01:03.263Z,7.73
2019-04-28T01:03:32.767Z,8.20
2019-04-28T01:06:02.125Z,7.97
2019-04-28T01:08:32.633Z,7.50
2019-04-28T01:11:02.330Z,6.97
2019-04-28T01:13:32.755Z,7.30
2019-04-28T01:16:06.801Z,7.53
2019-04-28T01:18:46.474Z,7.10
2019-04-28T01:21:15.979Z,6.73
2019-04-28T01:23:45.519Z,7.27
2019-04-28T01:26:14.957Z,8.00
2019-04-28T01:28:44.415Z,7.97
2019-04-28T01:31:31.878Z,7.20
2019-04-28T01:34:12.069Z,7.77
2019-04-28T01:36:41.513Z,7.70
2019-04-28T01:39:10.976Z,7.30
2019-04-28T01:41:40.777Z,7.57
2019-04-28T01:44:10.394Z,7.37
2019-04-28T01:46:40.021Z,8.43
2019-04-28T01:49:09.747Z,7.57
2019-04-28T01:51:39.165Z,7.73
2019-04-28T01:54:09.824Z,7.93
2019-04-28T01:56:40.360Z,7.50
2019-04-28T01:59:10.225Z,7.63
2019-04-28T02:01:40.052Z,8.10
2019-04-28T02:04:10.136Z,7.80
2019-04-28T02:06:39.952Z,9.07
2019-04-28T02:09:10.257Z,9.77
2019-04-28T02:11:41.409Z,10.00
2019-04-28T02:14:23.086Z,8.43
2019-04-28T02:16:52.571Z,8.33
2019-04-28T02:19:22.021Z,8.03
2019-04-28T02:21:59.487Z,9.67
2019-04-28T02:24:36.443Z,8.13
2019-04-28T02:27:06.041Z,9.43
2019-04-28T02:29:35.566Z,10.13
2019-04-28T02:32:06.750Z,10.83
2019-04-28T02:34:36.214Z,10.35
2019-04-28T02:37:05.718Z,11.03
2019-04-28T02:39:35.167Z,10.13
2019-04-28T02:42:04.744Z,10.05
2019-04-28T02:44:35.213Z,11.07
2019-04-28T02:47:04.806Z,10.70
2019-04-28T02:49:35.892Z,11.87
2019-04-28T02:52:10.752Z,11.37
2019-04-28T02:54:40.615Z,10.83
2019-04-28T02:57:11.239Z,10.47
2019-04-28T02:59:44.812Z,9.77
2019-04-28T03:02:12.829Z,10.03
2019-04-28T03:04:43.396Z,10.80
2019-04-28T03:07:14.578Z,10.07
2019-04-28T03:09:44.040Z,10.57
2019-04-28T03:12:15.124Z,10.40
2019-04-28T03:14:46.197Z,10.83
2019-04-28T03:17:15.794Z,11.17
2019-04-28T03:19:45.446Z,11.07
2019-04-28T03:22:14.973Z,11.80
2019-04-28T03:24:46.003Z,10.53
2019-04-28T03:27:17.096Z,10.53
2019-04-28T03:29:50.432Z,10.77
2019-04-28T03:32:37.280Z,11.70
2019-04-28T03:34:54.947Z,10.23
2019-04-28T03:37:24.634Z,10.93
2019-04-28T03:39:54.183Z,10.80
2019-04-28T03:42:36.075Z,10.30
2019-04-28T03:45:07.743Z,10.87
2019-04-28T03:47:37.287Z,10.40
2019-04-28T03:50:07.247Z,10.20
2019-04-28T03:52:41.155Z,11.07
2019-04-28T03:55:11.691Z,10.63
2019-04-28T03:57:41.372Z,10.43
2019-04-28T04:00:11.775Z,10.90
2019-04-28T04:02:41.450Z,10.00
2019-04-28T04:05:11.333Z,10.47
2019-04-28T04:07:43.205Z,9.93
2019-04-28T04:10:20.552Z,10.30
2019-04-28T04:12:51.061Z,11.00
2019-04-28T04:15:41.376Z,10.30
2019-04-28T04:18:12.607Z,11.03
2019-04-28T04:20:42.295Z,10.47
2019-04-28T04:23:13.359Z,11.53
2019-04-28T04:25:42.834Z,10.97
2019-04-28T04:28:12.277Z,11.23
2019-04-28T04:30:41.709Z,10.90
2019-04-28T04:33:11.396Z,10.63
2019-04-28T04:35:43.892Z,10.87
2019-04-28T04:38:13.296Z,11.20
2019-04-28T04:40:42.738Z,10.33
2019-04-28T04:43:12.215Z,10.47
2019-04-28T04:45:41.648Z,9.70
2019-04-28T04:48:11.767Z,9.97
2019-04-28T04:50:42.259Z,10.20
2019-04-28T04:53:11.686Z,9.97
2019-04-28T04:55:41.206Z,8.67
2019-04-28T04:58:10.915Z,8.55
2019-04-28T05:00:44.789Z,9.03
2019-04-28T05:03:15.948Z,9.17
2019-04-28T05:05:45.394Z,9.40
2019-04-28T05:08:15.646Z,9.17
2019-04-28T05:10:45.301Z,9.07
2019-04-28T05:13:14.756Z,9.17
2019-04-28T05:15:44.196Z,8.60
2019-04-28T05:18:13.636Z,8.60
2019-04-28T05:20:43.075Z,8.90
2019-04-28T05:23:14.161Z,8.83
2019-04-28T05:25:44.234Z,8.07
2019-04-28T05:28:16.596Z,9.07
2019-04-28T05:30:46.911Z,8.60
2019-04-28T05:33:32.072Z,8.93
2019-04-28T05:36:02.863Z,9.93
2019-04-28T05:38:30.630Z,8.97
2019-04-28T05:41:02.801Z,9.87
2019-04-28T05:43:31.153Z,8.57
2019-04-28T05:46:00.612Z,9.03
2019-04-28T05:48:40.690Z,10.00
2019-04-28T05:51:17.320Z,8.87
2019-04-28T05:53:50.611Z,9.13
2019-04-28T05:56:21.101Z,8.57
2019-04-28T05:58:54.870Z,8.70
2019-04-28T06:01:30.449Z,9.27
2019-04-28T06:04:00.922Z,8.67
2019-04-28T06:06:32.043Z,9.23
2019-04-28T06:09:03.161Z,8.97
2019-04-28T06:11:34.870Z,9.63
2019-04-28T06:14:04.630Z,9.87
2019-04-28T06:16:34.074Z,8.63
2019-04-28T06:19:03.597Z,8.40
2019-04-28T06:21:32.944Z,8.67
2019-04-28T06:24:02.426Z,8.43
2019-04-28T06:26:31.997Z,8.43
2019-04-28T06:29:01.509Z,8.57
2019-04-28T06:31:32.336Z,8.13
2019-04-28T06:34:01.777Z,8.33
2019-04-28T06:36:31.238Z,8.23
2019-04-28T06:39:00.661Z,7.43
2019-04-28T06:41:31.664Z,8.70
2019-04-28T06:44:01.036Z,8.30
2019-04-28T06:46:30.472Z,8.03
2019-04-28T06:49:01.088Z,8.00
2019-04-28T06:51:30.519Z,7.77
2019-04-28T06:54:00.048Z,7.30
2019-04-28T06:56:29.483Z,7.90
2019-04-28T06:58:59.523Z,7.63
2019-04-28T07:01:29.129Z,7.40
2019-04-28T07:03:58.566Z,7.87
2019-04-28T07:06:28.031Z,6.83
2019-04-28T07:08:57.478Z,6.40
2019-04-28T07:11:26.908Z,7.97
2019-04-28T07:13:56.372Z,7.30
2019-04-28T07:16:25.814Z,7.13
2019-04-28T07:18:55.315Z,7.50
2019-04-28T07:21:42.657Z,8.27
2019-04-28T07:24:12.191Z,7.17
2019-04-28T07:26:41.614Z,7.57
2019-04-28T07:29:11.045Z,7.53
2019-04-28T07:31:40.575Z,8.30
2019-04-28T07:34:10.080Z,7.27
2019-04-28T07:36:39.526Z,7.30
2019-04-28T07:39:08.968Z,7.70
2019-04-28T07:41:38.422Z,7.40
2019-04-28T07:44:07.852Z,7.23
2019-04-28T07:46:37.310Z,7.63
2019-04-28T07:49:06.753Z,6.67
2019-04-28T07:51:40.847Z,7.53
2019-04-28T07:54:11.942Z,7.30
2019-04-28T07:56:41.471Z,6.60
2019-04-28T07:59:10.961Z,7.27
2019-04-28T08:01:40.486Z,6.80
2019-04-28T08:04:09.990Z,7.10
2019-04-28T08:06:39.536Z,8.00
2019-04-28T08:09:13.301Z,6.77
2019-04-28T08:11:42.850Z,7.60
2019-04-28T08:14:12.374Z,7.33
2019-04-28T08:16:41.820Z,6.43
2019-04-28T08:19:11.342Z,6.45
2019-04-28T08:21:40.704Z,7.13
2019-04-28T08:24:10.170Z,7.90
2019-04-28T08:26:42.540Z,6.97
2019-04-28T08:29:12.000Z,7.27
2019-04-28T08:31:43.145Z,7.07
2019-04-28T08:34:12.672Z,6.23
2019-04-28T08:36:42.169Z,6.80
2019-04-28T08:39:11.718Z,7.53
2019-04-28T08:41:41.215Z,7.10
2019-04-28T08:44:10.651Z,6.83
2019-04-28T08:46:40.130Z,6.70
2019-04-28T08:49:09.630Z,8.10
2019-04-28T08:51:39.538Z,7.03
2019-04-28T08:54:09.130Z,7.27
2019-04-28T08:56:38.709Z,7.47
2019-04-28T08:59:08.197Z,6.87
2019-04-28T09:01:37.636Z,8.07
2019-04-28T09:04:15.105Z,7.80
2019-04-28T09:06:38.346Z,8.87
2019-04-28T09:09:09.536Z,7.80
2019-04-28T09:11:39.259Z,8.20
2019-04-28T09:14:08.709Z,8.20
2019-04-28T09:16:38.224Z,6.83
2019-04-28T09:19:07.813Z,7.93
2019-04-28T09:21:37.285Z,7.33
2019-04-28T09:24:06.802Z,7.50
2019-04-28T09:26:37.117Z,8.03
2019-04-28T09:29:06.719Z,8.67
2019-04-28T09:31:36.244Z,8.50
2019-04-28T09:34:05.709Z,8.70
2019-04-28T09:36:36.458Z,9.30
2019-04-28T09:39:07.901Z,9.23
2019-04-28T09:41:39.188Z,9.03
2019-04-28T09:44:16.213Z,9.10
2019-04-28T09:46:47.435Z,8.77
2019-04-28T09:49:16.992Z,8.57
2019-04-28T09:51:46.521Z,10.10
2019-04-28T09:54:15.961Z,8.83
2019-04-28T09:56:56.121Z,7.20
2019-04-28T09:59:16.517Z,7.30
2019-04-28T10:01:46.003Z,6.97
2019-04-28T10:04:15.479Z,7.07
2019-04-28T10:06:45.076Z,5.67
2019-04-28T10:09:14.869Z,6.80
2019-04-28T10:11:47.057Z,6.60
2019-04-28T10:14:17.631Z,5.87
2019-04-28T10:16:47.071Z,5.00
2019-04-28T10:19:16.539Z,5.07
2019-04-28T10:21:45.985Z,5.37
2019-04-28T10:24:15.543Z,5.17
2019-04-28T10:26:45.145Z,4.97
2019-04-28T10:29:14.579Z,4.23
2019-04-28T10:31:45.397Z,3.50
2019-04-28T10:34:15.972Z,3.80
2019-04-28T10:36:45.513Z,3.83
2019-04-28T10:39:19.781Z,3.87
2019-04-28T10:41:51.042Z,4.00
2019-04-28T10:44:21.211Z,4.00
2019-04-28T10:46:51.058Z,3.50
2019-04-28T10:49:21.016Z,4.13
2019-04-28T10:51:59.112Z,4.00
2019-04-28T10:54:22.636Z,3.03
2019-04-28T10:56:52.666Z,3.00
2019-04-28T10:59:22.837Z,3.30
2019-04-28T11:01:53.001Z,3.27
2019-04-28T11:04:39.898Z,2.90
2019-04-28T11:07:11.498Z,2.73
2019-04-28T11:09:45.793Z,2.77
2019-04-28T11:12:16.953Z,3.30
2019-04-28T11:14:46.415Z,2.97
2019-04-28T11:17:16.486Z,3.60
2019-04-28T11:19:46.042Z,3.30
2019-04-28T11:22:15.810Z,3.30
2019-04-28T11:24:45.439Z,3.10
2019-04-28T11:27:16.357Z,2.93
2019-04-28T11:29:47.415Z,2.95
2019-04-28T11:32:17.226Z,2.70
2019-04-28T11:34:57.151Z,2.55
2019-04-28T11:37:26.613Z,2.67
2019-04-28T11:39:57.664Z,2.90
2019-04-28T11:42:28.438Z,3.20
2019-04-28T11:44:57.933Z,2.83
2019-04-28T11:47:27.486Z,2.90
2019-04-28T11:49:56.949Z,3.07
2019-04-28T11:52:26.724Z,3.10
2019-04-28T11:55:02.017Z,3.13
2019-04-28T11:57:32.947Z,3.07
2019-04-28T12:00:05.702Z,2.60
2019-04-28T12:02:36.771Z,2.00
2019-04-28T12:05:07.518Z,3.00
2019-04-28T12:07:36.976Z,2.60
2019-04-28T12:10:08.452Z,2.98
2019-04-28T12:12:55.737Z,2.22
2019-04-28T12:15:29.620Z,1.85
2019-04-28T12:18:06.532Z,1.40
2019-04-28T12:20:36.042Z,1.45
2019-04-28T12:23:05.732Z,1.65
2019-04-28T12:25:35.291Z,1.50
2019-04-28T12:28:04.806Z,1.57
2019-04-28T12:30:34.386Z,1.60
2019-04-28T12:33:03.927Z,1.60
2019-04-28T12:35:33.358Z,1.52
2019-04-28T12:38:02.881Z,2.05
2019-04-28T12:40:32.417Z,2.10
2019-04-28T12:43:01.928Z,1.60
2019-04-28T12:45:35.358Z,1.93
2019-04-28T12:48:06.014Z,2.77
2019-04-28T12:50:37.562Z,2.50
2019-04-28T12:53:07.229Z,2.40
2019-04-28T12:55:36.792Z,2.70
2019-04-28T12:58:06.325Z,2.62
2019-04-28T13:00:55.832Z,2.72
2019-04-28T13:03:26.967Z,2.83
2019-04-28T13:06:02.526Z,2.02
2019-04-28T13:08:29.199Z,2.17
2019-04-28T13:10:58.871Z,2.17
2019-04-28T13:13:28.886Z,2.47
2019-04-28T13:15:58.984Z,2.30
2019-04-28T13:18:29.134Z,2.60
2019-04-28T13:20:59.951Z,2.05
2019-04-28T13:23:29.461Z,2.20
2019-04-28T13:26:01.062Z,2.00
2019-04-28T13:28:30.620Z,1.82
2019-04-28T13:31:00.139Z,1.70
2019-04-28T13:33:32.093Z,2.03
2019-04-28T13:36:14.010Z,1.67
2019-04-28T13:38:33.679Z,1.80
2019-04-28T13:41:03.562Z,1.80
2019-04-28T13:43:33.318Z,1.60
2019-04-28T13:46:02.912Z,1.50
2019-04-28T13:48:32.454Z,1.10
2019-04-28T13:51:01.976Z,1.55
2019-04-28T13:53:32.951Z,1.83
2019-04-28T13:56:03.282Z,1.80
2019-04-28T13:58:34.123Z,2.00
2019-04-28T14:01:07.948Z,1.90
2019-04-28T14:03:39.114Z,2.10
2019-04-28T14:06:10.392Z,1.75
2019-04-28T14:08:39.826Z,2.02
2019-04-28T14:11:09.437Z,2.25
2019-04-28T14:13:38.976Z,2.52
2019-04-28T14:16:08.408Z,2.45
2019-04-28T14:18:38.313Z,2.60
2019-04-28T14:21:08.099Z,2.70
2019-04-28T14:23:37.741Z,2.67
2019-04-28T14:26:08.822Z,2.67
2019-04-28T14:28:42.298Z,2.33
2019-04-28T14:31:11.982Z,2.77
2019-04-28T14:33:41.534Z,3.60
2019-04-28T14:36:11.164Z,2.60
2019-04-28T14:38:46.678Z,2.47
2019-04-28T14:41:17.780Z,2.50
2019-04-28T14:43:48.912Z,2.58
2019-04-28T14:46:18.371Z,2.30
2019-04-28T14:48:48.017Z,2.60
2019-04-28T14:51:17.474Z,2.40
2019-04-28T14:53:48.578Z,2.20
2019-04-28T14:56:19.583Z,2.50
2019-04-28T14:58:50.655Z,2.75
2019-04-28T15:01:38.620Z,2.33
2019-04-28T15:04:20.850Z,2.45
2019-04-28T15:06:59.894Z,2.17
2019-04-28T15:09:47.219Z,2.20
2019-04-28T15:12:16.827Z,1.77
2019-04-28T15:14:46.312Z,2.08
2019-04-28T15:17:16.865Z,1.80
2019-04-28T15:19:46.361Z,2.25
2019-04-28T15:22:15.926Z,1.70
2019-04-28T15:24:46.427Z,1.87
2019-04-28T15:27:16.595Z,1.80
2019-04-28T15:29:46.682Z,1.60
2019-04-28T15:32:16.303Z,1.40
2019-04-28T15:34:45.796Z,1.80
2019-04-28T15:37:15.648Z,1.85
2019-04-28T15:39:46.253Z,2.20
2019-04-28T15:42:15.703Z,2.52
2019-04-28T15:44:45.238Z,2.80
2019-04-28T15:47:14.786Z,2.77
2019-04-28T15:49:44.381Z,2.55
2019-04-28T15:52:13.903Z,2.63
2019-04-28T15:54:43.418Z,2.98
2019-04-28T15:57:13.131Z,2.50
2019-04-28T15:59:44.855Z,2.17
2019-04-28T16:02:14.401Z,2.13
2019-04-28T16:04:44.013Z,1.90
2019-04-28T16:07:24.283Z,2.40
2019-04-28T16:09:47.311Z,2.27
2019-04-28T16:12:16.848Z,3.07
2019-04-28T16:14:46.242Z,2.67
2019-04-28T16:17:19.861Z,3.20
2019-04-28T16:19:48.090Z,3.10
2019-04-28T16:22:17.709Z,3.30
2019-04-28T16:24:47.301Z,3.67
2019-04-28T16:27:16.905Z,3.80
2019-04-28T16:29:48.353Z,3.60
2019-04-28T16:32:17.889Z,3.77
2019-04-28T16:34:47.356Z,3.57
2019-04-28T16:37:17.900Z,3.67
2019-04-28T16:39:47.589Z,3.37
2019-04-28T16:42:29.332Z,3.73
2019-04-28T16:45:09.306Z,3.37
2019-04-28T16:47:40.387Z,3.13
2019-04-28T16:50:10.237Z,3.40
2019-04-28T16:52:40.978Z,2.43
2019-04-28T16:55:15.244Z,3.10
2019-04-28T16:58:01.873Z,2.40
2019-04-28T17:00:50.510Z,2.65
2019-04-28T17:03:21.480Z,2.80
2019-04-28T17:05:52.076Z,2.57
2019-04-28T17:08:21.687Z,2.20
2019-04-28T17:10:51.278Z,2.13
2019-04-28T17:13:21.982Z,2.30
2019-04-28T17:15:52.019Z,2.27
2019-04-28T17:18:21.640Z,2.30
2019-04-28T17:20:54.157Z,2.23
2019-04-28T17:23:22.335Z,2.30
2019-04-28T17:25:55.480Z,1.93
2019-04-28T17:28:26.133Z,1.93
2019-04-28T17:31:00.163Z,1.70
2019-04-28T17:33:31.209Z,1.93
2019-04-28T17:36:04.397Z,1.90
2019-04-28T17:38:33.994Z,3.30
2019-04-28T17:41:05.460Z,1.83
2019-04-28T17:43:36.493Z,1.67
2019-04-28T17:46:06.568Z,1.63
2019-04-28T17:48:37.883Z,1.50
2019-04-28T17:51:09.594Z,1.53
2019-04-28T17:53:39.206Z,1.40
2019-04-28T17:56:08.878Z,1.67
2019-04-28T17:58:42.830Z,1.40
2019-04-28T18:01:29.105Z,1.23
2019-04-28T18:04:00.817Z,1.60
2019-04-28T18:06:33.297Z,1.50
2019-04-28T18:09:02.960Z,1.03
2019-04-28T18:11:34.298Z,1.40
2019-04-28T18:14:04.210Z,1.20
2019-04-28T18:16:48.500Z,1.23
2019-04-28T18:19:19.800Z,1.30
2019-04-28T18:21:49.342Z,1.30
2019-04-28T18:24:20.247Z,1.10
2019-04-28T18:26:49.730Z,1.33
2019-04-28T18:29:19.271Z,1.27
2019-04-28T18:32:01.270Z,1.50
2019-04-28T18:34:36.473Z,1.37
2019-04-28T18:37:24.787Z,1.40
2019-04-28T18:40:04.334Z,1.90
2019-04-28T18:42:44.122Z,1.57
2019-04-28T18:45:16.303Z,1.57
2019-04-28T18:47:45.927Z,1.80
2019-04-28T18:50:15.625Z,1.90
2019-04-28T18:52:53.958Z,1.60
2019-04-28T18:55:20.922Z,2.43
2019-04-28T18:57:50.533Z,1.67
2019-04-28T19:00:21.773Z,1.80
2019-04-28T19:02:51.384Z,2.00
2019-04-28T19:05:22.564Z,1.73
2019-04-28T19:08:11.097Z,2.03
2019-04-28T19:11:00.477Z,2.20
2019-04-28T19:13:31.766Z,2.57
2019-04-28T19:16:21.259Z,2.50
2019-04-28T19:18:55.270Z,1.57
2019-04-28T19:21:25.193Z,1.63
2019-04-28T19:23:55.365Z,1.87
2019-04-28T19:26:25.897Z,1.77
2019-04-28T19:28:55.478Z,1.93
2019-04-28T19:31:25.171Z,2.10
2019-04-28T19:33:54.712Z,1.77
2019-04-28T19:36:24.487Z,1.97
2019-04-28T19:39:03.143Z,2.17
2019-04-28T19:41:25.147Z,2.23
2019-04-28T19:43:56.507Z,1.97
2019-04-28T19:46:26.022Z,1.90
2019-04-28T19:48:55.575Z,2.10
2019-04-28T19:51:31.691Z,2.60
2019-04-28T19:53:56.667Z,2.50
2019-04-28T19:56:38.422Z,3.00
2019-04-28T19:59:09.665Z,3.07
2019-04-28T20:01:40.710Z,2.80
2019-04-28T20:04:11.971Z,3.43
2019-04-28T20:06:42.613Z,3.20
2019-04-28T20:09:12.301Z,4.60
2019-04-28T20:11:41.999Z,4.93
2019-04-28T20:14:12.770Z,4.73
2019-04-28T20:16:42.479Z,4.20
2019-04-28T20:19:12.573Z,4.40
2019-04-28T20:21:43.413Z,4.23
2019-04-28T20:24:13.995Z,4.50
2019-04-28T20:26:43.659Z,3.97
2019-04-28T20:29:13.202Z,4.30
2019-04-28T20:31:44.437Z,4.80
2019-04-28T20:34:14.015Z,4.60
2019-04-28T20:36:48.310Z,5.00
2019-04-28T20:39:26.421Z,4.60
2019-04-28T20:42:00.847Z,4.93
2019-04-28T20:44:31.901Z,4.90
2019-04-28T20:47:03.362Z,4.87
2019-04-28T20:49:33.382Z,4.40
2019-04-28T20:52:02.977Z,5.03
2019-04-28T20:54:32.419Z,4.77
2019-04-28T20:57:01.960Z,4.57
2019-04-28T20:59:31.393Z,4.67
2019-04-28T21:02:02.566Z,5.50
2019-04-28T21:04:32.229Z,5.80
2019-04-28T21:07:01.736Z,6.87
2019-04-28T21:09:31.203Z,6.03
2019-04-28T21:12:00.743Z,5.53
2019-04-28T21:14:30.579Z,6.60
2019-04-28T21:17:00.045Z,6.40
2019-04-28T21:19:29.615Z,8.07
2019-04-28T21:21:59.267Z,8.33
2019-04-28T21:24:29.692Z,7.23
2019-04-28T21:26:59.170Z,6.47
2019-04-28T21:29:28.683Z,6.30
2019-04-28T21:31:58.116Z,6.50
2019-04-28T21:34:27.582Z,6.40
2019-04-28T21:36:57.107Z,6.27
2019-04-28T21:39:28.449Z,6.60
2019-04-28T21:41:59.350Z,6.23
2019-04-28T21:44:30.589Z,7.17
2019-04-28T21:47:08.101Z,5.93
2019-04-28T21:49:39.202Z,6.80
2019-04-28T21:52:08.649Z,7.27
2019-04-28T21:54:38.101Z,7.07
2019-04-28T21:57:07.606Z,7.17
2019-04-28T21:59:37.044Z,7.47
2019-04-28T22:02:06.709Z,6.63
2019-04-28T22:04:36.389Z,7.47
2019-04-28T22:07:05.906Z,8.33
2019-04-28T22:09:35.399Z,8.07
2019-04-28T22:12:06.627Z,7.27
2019-04-28T22:14:38.808Z,7.07
2019-04-28T22:17:08.573Z,6.47
2019-04-28T22:19:37.923Z,6.60
2019-04-28T22:22:07.442Z,7.27
2019-04-28T22:24:47.307Z,7.93
2019-04-28T22:27:18.416Z,7.47
2019-04-28T22:29:47.846Z,7.60
2019-04-28T22:32:17.281Z,8.13
2019-04-28T22:34:46.717Z,8.37
2019-04-28T22:37:17.138Z,8.27
2019-04-28T22:39:47.141Z,8.13
2019-04-28T22:42:16.685Z,9.00
2019-04-28T22:44:46.123Z,8.20
2019-04-28T22:47:15.589Z,8.07
2019-04-28T22:49:45.080Z,7.27
2019-04-28T22:52:14.603Z,8.00
2019-04-28T22:54:51.647Z,8.13
2019-04-28T22:57:22.830Z,8.20
2019-04-28T22:59:53.905Z,8.70
2019-04-28T23:02:26.787Z,9.00
2019-04-28T23:05:03.661Z,8.53
2019-04-28T23:07:34.362Z,8.70
2019-04-28T23:10:05.463Z,8.20
2019-04-28T23:12:34.982Z,7.63
2019-04-28T23:15:25.257Z,7.97
2019-04-28T23:17:54.699Z,8.67
2019-04-28T23:20:25.829Z,8.40
2019-04-28T23:22:57.847Z,8.23
2019-04-28T23:25:27.274Z,7.87
2019-04-28T23:27:56.693Z,7.63
2019-04-28T23:30:38.483Z,8.13
2019-04-28T23:33:08.000Z,7.63
2019-04-28T23:35:37.539Z,7.50
2019-04-28T23:38:07.135Z,7.62
2019-04-28T23:40:38.299Z,8.30
2019-04-28T23:43:09.376Z,8.50
2019-04-28T23:45:38.887Z,9.80
2019-04-28T23:48:08.327Z,8.57
2019-04-28T23:50:39.315Z,9.50
2019-04-28T23:53:10.339Z,8.60
2019-04-28T23:55:39.765Z,8.67
2019-04-28T23:58:09.203Z,9.67
